Time;durP1;ratioP1;P1;durP2;ratioP2;P2;SDS_P1;SDS_P2;PMS_P1;PMS_P2;Temp;Humidity;BMP_temperature;BMP_pressure;BME280_temperature;BME280_humidity;BME280_pressure;Samples;Min_cycle;Max_cycle;Signal;HPM_P1;HPM_P2
2022/05/19 00:01:12;;;;;;;8.65;1.58;;;15.60;99.90;;;;;;5049011;28;20028;-62
2022/05/19 00:03:38;;;;;;;3.92;1.17;;;15.60;99.90;;;;;;5048993;28;20021;-61
2022/05/19 00:06:07;;;;;;;2.83;1.25;;;15.60;99.90;;;;;;5050159;28;20128;-62
2022/05/19 00:08:33;;;;;;;3.65;1.00;;;15.70;99.90;;;;;;5052119;28;20138;-61
2022/05/19 00:11:03;;;;;;;2.38;1.33;;;15.70;99.90;;;;;;5051529;28;20117;-62
2022/05/19 00:13:30;;;;;;;4.95;1.88;;;15.60;99.90;;;;;;5051959;28;20029;-61
2022/05/19 00:15:56;;;;;;;4.10;1.58;;;15.60;99.90;;;;;;5051772;28;20029;-62
2022/05/19 00:18:22;;;;;;;5.95;1.67;;;15.50;99.90;;;;;;5051830;28;20097;-61
2022/05/19 00:20:48;;;;;;;9.90;1.58;;;15.50;99.90;;;;;;5051602;28;20402;-62
2022/05/19 00:23:14;;;;;;;5.65;1.50;;;15.50;99.90;;;;;;5051627;28;20442;-61
2022/05/19 00:25:40;;;;;;;5.13;1.67;;;15.50;99.90;;;;;;5051429;28;20071;-62
2022/05/19 00:28:06;;;;;;;7.30;1.70;;;15.50;99.90;;;;;;5051345;28;20033;-61
2022/05/19 00:30:32;;;;;;;3.58;1.80;;;15.50;99.90;;;;;;5051592;28;20025;-62
2022/05/19 00:32:58;;;;;;;3.83;1.42;;;15.50;99.90;;;;;;5051553;28;20033;-61
2022/05/19 00:35:24;;;;;;;4.68;1.58;;;15.50;99.90;;;;;;5051392;28;20086;-61
2022/05/19 00:37:50;;;;;;;8.80;1.60;;;15.40;99.90;;;;;;5051338;28;20047;-62
2022/05/19 00:40:18;;;;;;;4.47;1.83;;;15.40;99.90;;;;;;5051147;28;20393;-61
2022/05/19 00:42:44;;;;;;;5.85;1.48;;;15.40;99.90;;;;;;5050954;28;20033;-61
2022/05/19 00:45:19;;;;;;;9.25;2.08;;;15.40;99.90;;;;;;5033317;28;20033;-62
2022/05/19 00:47:47;;;;;;;5.30;1.70;;;15.40;99.90;;;;;;5051106;28;20040;-62
2022/05/19 00:50:50;;;;;;;3.35;1.80;;;15.40;99.90;;;;;;5051066;28;20501;-62
2022/05/19 00:53:24;;;;;;;5.68;2.28;;;15.50;99.90;;;;;;5065761;28;20568;-62
2022/05/19 00:55:52;;;;;;;3.97;1.60;;;15.50;99.90;;;;;;5070416;28;20044;-61
2022/05/19 00:58:33;;;;;;;5.40;2.08;;;15.50;99.90;;;;;;5070673;28;20114;-61
2022/05/19 01:00:59;;;;;;;5.47;1.52;;;15.50;99.90;;;;;;5070948;28;20165;-62
2022/05/19 01:03:28;;;;;;;7.97;1.85;;;15.50;99.90;;;;;;5067617;28;20158;-61
2022/05/19 01:06:00;;;;;;;4.93;1.92;;;15.50;99.90;;;;;;5067735;28;20024;-62
2022/05/19 01:08:42;;;;;;;6.25;1.50;;;15.50;99.90;;;;;;5069989;28;20088;-62
2022/05/19 01:11:09;;;;;;;10.13;1.80;;;15.50;99.90;;;;;;5070212;28;20371;-61
2022/05/19 01:13:35;;;;;;;6.20;1.70;;;15.50;99.90;;;;;;5070673;28;20032;-61
2022/05/19 01:16:03;;;;;;;6.72;1.60;;;15.60;99.90;;;;;;5070497;28;20298;-62
2022/05/19 01:18:30;;;;;;;3.60;1.60;;;15.50;99.90;;;;;;5070307;28;20460;-62
2022/05/19 01:20:55;;;;;;;5.82;1.73;;;15.50;99.90;;;;;;5052524;28;20397;-61
2022/05/19 01:23:49;;;;;;;2.97;1.85;;;15.30;99.90;;;;;;5070293;28;20484;-61
2022/05/19 01:26:25;;;;;;;8.73;2.08;;;15.30;99.90;;;;;;5070366;28;20029;-61
2022/05/19 01:28:51;;;;;;;7.45;1.90;;;15.30;99.90;;;;;;5070340;28;20078;-61
2022/05/19 01:31:28;;;;;;;7.15;1.85;;;15.30;99.90;;;;;;5070258;28;20385;-60
2022/05/19 01:33:54;;;;;;;4.93;1.30;;;15.30;99.90;;;;;;5070465;28;20033;-61
2022/05/19 01:36:19;;;;;;;3.88;1.70;;;15.30;99.90;;;;;;5070146;28;20062;-61
2022/05/19 01:38:45;;;;;;;3.67;2.05;;;15.30;99.90;;;;;;5070006;28;20060;-61
2022/05/19 01:41:24;;;;;;;4.10;1.40;;;15.30;99.90;;;;;;5069897;28;20044;-61
2022/05/19 01:44:01;;;;;;;2.83;1.63;;;15.30;99.90;;;;;;5070372;28;20037;-61
2022/05/19 01:46:33;;;;;;;5.72;2.13;;;15.40;99.90;;;;;;5058849;28;20025;-61
2022/05/19 01:49:23;;;;;;;3.60;1.70;;;15.40;99.90;;;;;;5048198;28;20025;-61
2022/05/19 01:52:09;;;;;;;3.75;1.65;;;15.40;99.90;;;;;;5046772;28;20516;-61
2022/05/19 01:54:50;;;;;;;2.50;1.60;;;15.40;99.90;;;;;;5046698;28;20029;-61
2022/05/19 01:57:42;;;;;;;2.40;1.60;;;15.50;99.90;;;;;;5046404;28;20111;-60
2022/05/19 02:00:13;;;;;;;10.82;2.03;;;15.50;99.90;;;;;;5064559;28;20389;-61
2022/05/19 02:03:25;;;;;;;3.92;1.98;;;15.40;99.90;;;;;;5066942;28;20028;-61
2022/05/19 02:06:10;;;;;;;6.22;1.98;;;15.50;99.90;;;;;;5059035;28;20396;-61
2022/05/19 02:08:37;;;;;;;7.45;1.60;;;15.50;99.90;;;;;;5069620;28;20089;-61
2022/05/19 02:11:09;;;;;;;7.65;1.95;;;15.60;99.90;;;;;;5069513;28;20392;-61
2022/05/19 02:13:35;;;;;;;8.45;2.22;;;15.60;99.90;;;;;;5070035;28;20029;-61
2022/05/19 02:16:05;;;;;;;4.35;1.80;;;15.60;99.90;;;;;;5069688;28;20103;-61
2022/05/19 02:18:31;;;;;;;8.98;2.20;;;15.70;99.90;;;;;;5069751;28;20110;-61
2022/05/19 02:21:01;;;;;;;4.07;1.95;;;15.60;99.90;;;;;;5069932;28;20422;-61
2022/05/19 02:23:28;;;;;;;3.20;2.08;;;15.60;99.90;;;;;;5069575;28;20078;-61
2022/05/19 02:25:54;;;;;;;4.43;1.77;;;15.50;99.90;;;;;;5069442;28;20021;-61
2022/05/19 02:28:32;;;;;;;2.17;1.67;;;15.50;99.90;;;;;;5069707;28;20036;-61
2022/05/19 02:30:58;;;;;;;3.92;1.70;;;15.50;99.90;;;;;;5069665;28;20028;-61
2022/05/19 02:33:24;;;;;;;6.63;1.80;;;15.40;99.90;;;;;;5069449;28;20050;-61
2022/05/19 02:35:51;;;;;;;2.78;1.58;;;15.40;99.90;;;;;;5069531;28;20035;-61
2022/05/19 02:38:18;;;;;;;4.43;2.30;;;15.40;99.90;;;;;;5069425;28;20028;-61
2022/05/19 02:40:44;;;;;;;4.75;2.20;;;15.40;99.90;;;;;;5069289;28;20393;-61
2022/05/19 02:43:12;;;;;;;3.08;1.77;;;15.30;99.90;;;;;;5065796;28;20029;-61
2022/05/19 02:45:38;;;;;;;4.68;1.85;;;15.20;99.90;;;;;;5069552;28;20031;-61
2022/05/19 02:48:05;;;;;;;3.10;1.58;;;15.20;99.90;;;;;;5068474;28;20033;-61
2022/05/19 02:50:31;;;;;;;4.32;1.88;;;15.10;99.90;;;;;;5066074;28;20478;-61
2022/05/19 02:52:57;;;;;;;4.32;1.92;;;15.10;99.90;;;;;;5066106;28;20059;-61
2022/05/19 02:55:23;;;;;;;4.45;2.03;;;15.10;99.90;;;;;;5066174;28;20020;-61
2022/05/19 02:57:50;;;;;;;11.35;2.25;;;15.10;99.90;;;;;;5066286;28;20469;-62
2022/05/19 03:00:19;;;;;;;4.38;1.80;;;15.10;99.90;;;;;;5069410;28;20036;-61
2022/05/19 03:02:46;;;;;;;5.88;2.25;;;15.10;99.90;;;;;;5069154;28;20089;-61
2022/05/19 03:05:17;;;;;;;5.05;2.05;;;15.10;99.90;;;;;;5069182;28;20389;-61
2022/05/19 03:07:43;;;;;;;7.88;2.25;;;15.20;99.90;;;;;;5069116;28;20120;-61
2022/05/19 03:10:10;;;;;;;5.20;1.80;;;15.20;99.90;;;;;;5069152;28;20103;-61
2022/05/19 03:12:35;;;;;;;5.88;1.60;;;15.20;99.90;;;;;;5069171;28;20040;-61
2022/05/19 03:15:02;;;;;;;5.07;1.73;;;15.20;99.90;;;;;;5069476;28;20028;-61
2022/05/19 03:17:27;;;;;;;5.25;1.80;;;15.20;99.90;;;;;;5070249;28;20481;-61
2022/05/19 03:19:54;;;;;;;6.50;1.73;;;15.20;99.90;;;;;;5072815;28;20147;-63
2022/05/19 03:22:20;;;;;;;3.13;1.90;;;15.10;99.90;;;;;;5072944;28;20055;-61
2022/05/19 03:24:46;;;;;;;8.13;2.10;;;15.00;99.90;;;;;;5072541;28;20100;-61
2022/05/19 03:27:12;;;;;;;4.10;1.42;;;15.00;99.90;;;;;;5072459;28;20447;-61
2022/05/19 03:29:37;;;;;;;6.88;1.90;;;15.00;99.90;;;;;;5072666;28;20020;-62
2022/05/19 03:32:03;;;;;;;4.30;1.90;;;14.90;99.90;;;;;;5072729;28;20123;-61
2022/05/19 03:34:29;;;;;;;9.23;2.03;;;14.80;99.90;;;;;;5072622;28;20046;-61
2022/05/19 03:36:55;;;;;;;7.93;2.10;;;14.80;99.90;;;;;;5072480;28;20033;-61
2022/05/19 03:39:20;;;;;;;9.90;2.00;;;14.80;99.90;;;;;;5072279;28;20017;-61
2022/05/19 03:41:46;;;;;;;9.52;2.20;;;14.80;99.90;;;;;;5072202;28;20029;-61
2022/05/19 03:44:12;;;;;;;5.13;2.15;;;14.80;99.90;;;;;;5072275;28;20036;-61
2022/05/19 03:46:38;;;;;;;6.95;2.00;;;14.80;99.90;;;;;;5072403;28;20090;-61
2022/05/19 03:49:04;;;;;;;8.13;2.13;;;14.70;99.90;;;;;;5072227;28;20028;-61
2022/05/19 03:51:32;;;;;;;6.43;1.92;;;14.70;99.90;;;;;;5072144;28;20371;-61
2022/05/19 03:53:58;;;;;;;7.70;2.45;;;14.70;99.90;;;;;;5072326;28;20096;-61
2022/05/19 03:56:25;;;;;;;9.93;1.92;;;14.60;99.90;;;;;;5071957;28;20029;-61
2022/05/19 03:58:51;;;;;;;10.13;3.13;;;14.60;99.90;;;;;;5072299;28;20094;-61
2022/05/19 04:01:19;;;;;;;9.60;2.10;;;14.60;99.90;;;;;;5072315;28;20029;-61
2022/05/19 04:03:45;;;;;;;4.35;1.95;;;14.70;99.90;;;;;;5068655;28;20508;-61
2022/05/19 04:06:10;;;;;;;6.20;2.95;;;14.70;99.90;;;;;;5071975;28;20032;-61
2022/05/19 04:08:36;;;;;;;9.93;2.75;;;14.70;99.90;;;;;;5071860;28;20044;-61
2022/05/19 04:11:03;;;;;;;10.43;2.47;;;14.70;99.90;;;;;;5071577;28;20021;-61
2022/05/19 04:13:29;;;;;;;6.55;2.45;;;14.70;99.90;;;;;;5072059;28;20040;-61
2022/05/19 04:15:54;;;;;;;6.25;2.20;;;14.70;99.90;;;;;;5070355;28;20016;-62
2022/05/19 04:18:20;;;;;;;3.83;2.20;;;14.60;99.90;;;;;;5068650;28;20036;-61
2022/05/19 04:20:46;;;;;;;10.30;2.55;;;14.70;99.90;;;;;;5069198;28;20032;-61
2022/05/19 04:23:12;;;;;;;4.82;2.63;;;14.70;99.90;;;;;;5071482;28;20068;-61
2022/05/19 04:25:38;;;;;;;8.82;2.58;;;14.70;99.90;;;;;;5071309;28;20546;-61
2022/05/19 04:28:05;;;;;;;6.15;2.15;;;14.80;99.90;;;;;;5071128;28;20410;-61
2022/05/19 04:30:31;;;;;;;6.47;2.53;;;14.80;99.90;;;;;;5070216;28;20032;-61
2022/05/19 04:32:57;;;;;;;9.93;2.50;;;14.80;99.90;;;;;;5068080;28;20078;-62
2022/05/19 04:35:23;;;;;;;8.35;2.70;;;14.80;99.90;;;;;;5067860;28;20142;-61
2022/05/19 04:37:49;;;;;;;10.10;2.85;;;14.80;99.90;;;;;;5070024;28;20440;-61
2022/05/19 04:40:16;;;;;;;9.15;2.05;;;14.80;99.90;;;;;;5071216;28;20034;-61
2022/05/19 04:42:42;;;;;;;6.82;3.20;;;14.80;99.90;;;;;;5067577;28;20482;-61
2022/05/19 04:45:10;;;;;;;6.75;2.25;;;14.80;99.90;;;;;;5071126;28;20066;-61
2022/05/19 04:47:36;;;;;;;14.20;2.72;;;14.80;99.90;;;;;;5071275;28;20054;-61
2022/05/19 04:50:02;;;;;;;9.80;2.40;;;14.80;99.90;;;;;;5071158;28;20385;-61
2022/05/19 04:52:27;;;;;;;3.38;2.92;;;14.90;99.90;;;;;;5070861;28;20106;-61
2022/05/19 04:54:53;;;;;;;7.10;2.70;;;14.90;99.90;;;;;;5070797;28;20017;-61
2022/05/19 04:57:18;;;;;;;8.68;3.05;;;14.90;99.90;;;;;;5070694;28;20394;-61
2022/05/19 04:59:44;;;;;;;10.00;2.90;;;14.90;99.90;;;;;;5071130;28;20056;-61
2022/05/19 05:02:11;;;;;;;7.35;2.75;;;14.90;99.90;;;;;;5068613;28;20025;-61
2022/05/19 05:04:37;;;;;;;9.88;3.85;;;14.90;99.90;;;;;;5067609;28;20020;-61
2022/05/19 05:07:04;;;;;;;8.00;4.03;;;15.00;99.90;;;;;;5068328;28;20040;-61
2022/05/19 05:09:30;;;;;;;10.55;4.95;;;15.00;99.90;;;;;;5070927;28;20026;-61
2022/05/19 05:11:56;;;;;;;15.55;5.72;;;15.10;99.90;;;;;;5070256;28;20409;-61
2022/05/19 05:14:22;;;;;;;21.35;5.55;;;15.00;99.90;;;;;;5070557;28;20020;-61
2022/05/19 05:16:52;;;;;;;21.48;6.50;;;15.00;99.90;;;;;;5067461;28;20443;-61
2022/05/19 05:19:22;;;;;;;15.75;6.78;;;14.90;99.90;;;;;;5067345;28;20059;-62
2022/05/19 05:21:54;;;;;;;14.90;6.43;;;14.90;99.90;;;;;;5067239;28;20033;-61
2022/05/19 05:24:20;;;;;;;14.88;7.70;;;14.90;99.90;;;;;;5067455;28;20087;-61
2022/05/19 05:26:46;;;;;;;19.20;7.50;;;14.80;99.90;;;;;;5067198;28;20086;-61
2022/05/19 05:29:11;;;;;;;19.67;7.95;;;14.80;99.90;;;;;;5067423;28;20435;-61
2022/05/19 05:31:37;;;;;;;11.85;6.40;;;14.80;99.90;;;;;;5067224;28;20516;-62
2022/05/19 05:34:03;;;;;;;15.70;7.35;;;14.80;99.90;;;;;;5067292;28;20400;-61
2022/05/19 05:36:28;;;;;;;16.50;6.85;;;14.80;99.90;;;;;;5067951;28;20121;-61
2022/05/19 05:38:54;;;;;;;20.75;7.95;;;14.80;99.90;;;;;;5070148;28;20106;-62
2022/05/19 05:41:20;;;;;;;15.40;6.60;;;14.80;99.90;;;;;;5068177;28;20048;-61
2022/05/19 05:43:45;;;;;;;14.57;6.93;;;14.80;99.90;;;;;;5067100;28;20025;-61
2022/05/19 05:46:16;;;;;;;11.90;7.25;;;14.80;99.90;;;;;;5067388;28;20029;-61
2022/05/19 05:48:45;;;;;;;13.68;8.25;;;14.90;99.90;;;;;;5070044;28;20523;-61
2022/05/19 05:51:12;;;;;;;14.48;7.35;;;14.90;99.90;;;;;;5068930;28;20025;-61
2022/05/19 05:53:39;;;;;;;16.92;7.78;;;14.80;99.90;;;;;;5066607;28;20048;-61
2022/05/19 05:56:06;;;;;;;15.40;7.57;;;14.80;99.90;;;;;;5067151;28;20026;-61
2022/05/19 05:58:32;;;;;;;15.23;7.28;;;14.70;99.90;;;;;;5068776;28;20106;-61
2022/05/19 06:00:58;;;;;;;12.65;6.68;;;14.70;99.90;;;;;;5066212;28;20032;-62
2022/05/19 06:03:24;;;;;;;11.70;6.75;;;14.70;99.90;;;;;;5067084;28;20067;-61
2022/05/19 06:05:50;;;;;;;13.18;6.85;;;14.80;99.90;;;;;;5067373;28;20024;-60
2022/05/19 06:08:16;;;;;;;13.57;7.35;;;14.70;99.90;;;;;;5069704;28;20039;-60
2022/05/19 06:10:42;;;;;;;17.55;7.05;;;14.80;99.90;;;;;;5069457;28;20036;-61
2022/05/19 06:13:09;;;;;;;13.73;6.95;;;14.80;99.90;;;;;;5069641;28;20044;-61
2022/05/19 06:15:34;;;;;;;14.38;7.55;;;14.90;99.90;;;;;;5069384;28;20024;-60
2022/05/19 06:18:00;;;;;;;11.95;7.38;;;14.90;99.90;;;;;;5069823;28;20444;-61
2022/05/19 06:20:26;;;;;;;13.73;6.93;;;14.90;99.90;;;;;;5069331;28;20059;-61
2022/05/19 06:22:52;;;;;;;15.75;8.00;;;15.00;99.90;;;;;;5066535;28;20037;-61
2022/05/19 06:25:21;;;;;;;13.70;7.07;;;15.10;99.90;;;;;;5066349;28;20020;-61
2022/05/19 06:27:50;;;;;;;17.92;8.57;;;15.20;99.90;;;;;;5066298;28;20090;-60
2022/05/19 06:30:17;;;;;;;14.85;7.78;;;15.30;99.90;;;;;;5069161;28;20057;-59
2022/05/19 06:32:44;;;;;;;17.73;8.70;;;15.40;99.90;;;;;;5069270;28;20093;-61
2022/05/19 06:35:12;;;;;;;14.52;8.10;;;15.50;99.90;;;;;;5069350;28;20027;-61
2022/05/19 06:37:38;;;;;;;17.13;8.70;;;15.50;99.90;;;;;;5066660;28;20160;-61
2022/05/19 06:40:05;;;;;;;18.40;8.70;;;15.50;99.90;;;;;;5064289;28;20120;-61
2022/05/19 06:42:31;;;;;;;14.30;7.63;;;15.40;99.90;;;;;;5067087;28;20115;-62
2022/05/19 06:44:56;;;;;;;15.77;8.10;;;15.30;99.90;;;;;;5069189;28;20524;-61
2022/05/19 06:47:22;;;;;;;13.15;7.43;;;15.30;99.90;;;;;;5069104;28;20093;-61
2022/05/19 06:49:51;;;;;;;15.10;8.00;;;15.20;99.90;;;;;;5069047;28;20521;-61
2022/05/19 06:52:22;;;;;;;15.88;8.15;;;15.10;99.90;;;;;;5069578;28;20057;-61
2022/05/19 06:54:51;;;;;;;18.92;7.95;;;15.10;99.90;;;;;;5072632;28;20028;-61
2022/05/19 06:57:19;;;;;;;14.07;6.93;;;15.10;99.90;;;;;;5072888;28;20031;-61
2022/05/19 06:59:45;;;;;;;17.27;9.40;;;15.00;99.90;;;;;;5073130;28;20547;-61
2022/05/19 07:02:12;;;;;;;16.15;7.93;;;15.00;99.90;;;;;;5070670;28;20113;-61
2022/05/19 07:04:38;;;;;;;17.83;7.78;;;14.90;99.90;;;;;;5069492;28;20138;-60
2022/05/19 07:07:04;;;;;;;12.25;6.35;;;14.90;99.90;;;;;;5070908;28;20078;-61
2022/05/19 07:09:31;;;;;;;14.98;7.43;;;14.90;99.90;;;;;;5072833;28;20024;-61
2022/05/19 07:11:57;;;;;;;11.45;7.10;;;14.90;99.90;;;;;;5072433;28;20038;-60
2022/05/19 07:14:24;;;;;;;14.27;7.28;;;14.90;99.90;;;;;;5073045;28;20020;-60
2022/05/19 07:16:49;;;;;;;13.23;7.55;;;14.90;99.90;;;;;;5072920;28;20028;-60
2022/05/19 07:22:04;;;;;;;12.68;6.15;;;14.90;99.90;;;;;;5073034;28;20093;-60
2022/05/19 07:24:29;;;;;;;16.80;6.82;;;14.80;99.90;;;;;;5072409;28;20107;-60
2022/05/19 07:26:55;;;;;;;9.43;5.80;;;14.90;99.90;;;;;;5072479;28;20098;-60
2022/05/19 07:29:22;;;;;;;13.43;7.13;;;14.90;99.90;;;;;;5072548;28;20082;-60
2022/05/19 07:31:50;;;;;;;12.60;6.15;;;14.80;99.90;;;;;;5072381;28;20457;-60
2022/05/19 07:34:18;;;;;;;8.65;5.07;;;14.80;99.90;;;;;;5072460;28;20028;-60
2022/05/19 07:36:44;;;;;;;12.93;7.28;;;14.90;99.90;;;;;;5070980;28;20024;-61
2022/05/19 07:39:11;;;;;;;14.43;6.63;;;15.10;99.90;;;;;;5069676;28;20359;-58
2022/05/19 07:41:37;;;;;;;14.65;6.63;;;15.30;99.90;;;;;;5069794;28;20024;-59
2022/05/19 07:44:04;;;;;;;11.40;6.78;;;15.30;99.90;;;;;;5072183;28;20024;-60
2022/05/19 07:46:30;;;;;;;13.95;6.68;;;15.30;99.90;;;;;;5065237;28;20211;-63
2022/05/19 07:48:57;;;;;;;10.50;6.40;;;15.30;99.90;;;;;;5061067;28;20104;-62
2022/05/19 07:51:25;;;;;;;11.20;6.50;;;15.30;99.90;;;;;;5055199;28;20143;-62
2022/05/19 07:53:51;;;;;;;10.75;6.72;;;15.30;99.90;;;;;;5051948;28;20096;-61
2022/05/19 07:56:17;;;;;;;9.93;5.30;;;15.30;99.90;;;;;;5051798;28;20025;-62
2022/05/19 07:58:44;;;;;;;9.48;5.70;;;15.30;99.90;;;;;;5054743;28;20013;-62
2022/05/19 08:01:10;;;;;;;12.93;6.20;;;15.20;99.90;;;;;;5052214;28;20029;-61
2022/05/19 08:03:35;;;;;;;9.13;5.68;;;15.20;99.90;;;;;;5051660;28;20371;-62
2022/05/19 08:06:01;;;;;;;9.70;5.90;;;15.20;99.90;;;;;;5051843;28;20029;-62
2022/05/19 08:08:27;;;;;;;8.30;5.55;;;15.10;99.90;;;;;;5051910;28;20037;-62
2022/05/19 08:10:57;;;;;;;9.88;5.35;;;15.10;99.90;;;;;;5054060;28;20099;-62
2022/05/19 08:16:07;;;;;;;13.40;6.20;;;15.00;99.90;;;;;;5072175;28;20035;-61
2022/05/19 08:18:33;;;;;;;13.18;7.05;;;15.10;99.90;;;;;;5071999;28;20029;-61
2022/05/19 08:21:04;;;;;;;10.43;6.50;;;15.20;99.90;;;;;;5071751;28;20041;-60
2022/05/19 08:23:37;;;;;;;14.45;6.38;;;15.30;99.90;;;;;;5066864;28;20025;-61
2022/05/19 08:26:04;;;;;;;13.55;6.50;;;15.40;99.90;;;;;;5048191;28;20017;-61
2022/05/19 08:28:30;;;;;;;11.40;6.53;;;15.50;99.90;;;;;;5049354;28;20063;-61
2022/05/19 08:31:03;;;;;;;11.68;5.68;;;15.60;99.90;;;;;;5051101;28;20112;-61
2022/05/19 08:33:29;;;;;;;10.77;6.03;;;15.70;99.90;;;;;;5056381;28;20517;-61
2022/05/19 08:35:55;;;;;;;13.82;6.85;;;15.90;99.90;;;;;;5062799;28;20016;-62
2022/05/19 08:38:21;;;;;;;13.30;7.13;;;16.20;99.90;;;;;;5069438;28;20397;-61
2022/05/19 08:41:05;;;;;;;9.60;6.13;;;16.40;99.90;;;;;;5071343;28;20111;-61
2022/05/19 08:43:53;;;;;;;6.63;3.10;;;16.70;99.90;;;;;;5071088;28;20036;-61
2022/05/19 08:46:23;;;;;;;2.92;2.22;;;16.70;99.90;;;;;;5061519;28;20385;-60
2022/05/19 08:48:53;;;;;;;4.32;2.70;;;16.90;99.90;;;;;;5071217;28;20178;-61
2022/05/19 08:51:24;;;;;;;3.88;2.78;;;17.00;99.90;;;;;;5048222;28;20108;-59
2022/05/19 08:53:51;;;;;;;4.47;2.63;;;17.10;99.90;;;;;;5057357;28;20470;-61
2022/05/19 08:56:32;;;;;;;3.55;2.38;;;17.40;99.90;;;;;;5056367;28;20082;-61
2022/05/19 08:59:17;;;;;;;4.15;2.00;;;17.70;99.90;;;;;;5070811;28;20493;-58
2022/05/19 09:02:01;;;;;;;4.78;1.90;;;17.80;99.90;;;;;;5053348;28;20032;-59
2022/05/19 09:04:55;;;;;;;4.85;1.65;;;18.10;99.90;;;;;;5070820;28;20057;-59
2022/05/19 09:10:32;;;;;;;5.78;2.70;;;18.20;99.90;;;;;;5067243;28;20055;-62
2022/05/19 09:13:11;;;;;;;5.50;2.25;;;18.30;99.90;;;;;;5070299;28;20092;-61
2022/05/19 09:15:37;;;;;;;3.42;2.60;;;18.30;99.90;;;;;;5070225;28;20271;-62
2022/05/19 09:18:03;;;;;;;2.65;2.00;;;18.40;99.90;;;;;;5070536;28;20024;-62
2022/05/19 09:20:40;;;;;;;6.13;2.40;;;18.70;99.90;;;;;;5070364;28;20020;-62
2022/05/19 09:23:06;;;;;;;7.38;2.60;;;19.30;99.90;;;;;;5069372;28;20027;-62
2022/05/19 09:25:34;;;;;;;3.35;2.40;;;20.40;99.90;;;;;;5067207;28;20313;-62
2022/05/19 09:28:01;;;;;;;6.82;2.63;;;21.60;99.90;;;;;;5067439;28;20027;-61
2022/05/19 09:30:39;;;;;;;3.78;1.83;;;22.40;99.90;;;;;;5070355;28;20028;-61
2022/05/19 09:33:16;;;;;;;4.03;1.92;;;23.60;99.90;;;;;;5070376;28;20489;-62
2022/05/19 09:35:47;;;;;;;2.85;1.50;;;24.80;99.90;;;;;;5070087;28;20524;-62
2022/05/19 09:38:49;;;;;;;3.38;1.63;;;25.70;99.90;;;;;;5070032;28;20472;-59
2022/05/19 09:41:30;;;;;;;3.03;1.58;;;26.40;99.90;;;;;;5037687;28;20401;-60
2022/05/19 09:43:58;;;;;;;1.95;1.45;;;27.00;98.60;;;;;;5070349;28;20039;-59
2022/05/19 09:46:30;;;;;;;3.25;1.40;;;27.90;99.30;;;;;;5070125;28;20500;-59
2022/05/19 09:49:05;;;;;;;3.05;1.33;;;29.70;96.70;;;;;;5069512;28;20036;-59
2022/05/19 09:51:39;;;;;;;2.75;1.38;;;29.10;94.30;;;;;;5069881;28;20466;-59
2022/05/19 09:54:05;;;;;;;3.10;1.42;;;29.90;93.40;;;;;;5070069;28;20017;-59
2022/05/19 09:56:42;;;;;;;2.13;1.30;;;27.50;95.60;;;;;;5069491;28;20028;-59
2022/05/19 09:59:13;;;;;;;1.80;1.15;;;26.60;96.70;;;;;;5069907;28;20116;-59
2022/05/19 10:01:43;;;;;;;2.95;1.52;;;26.40;98.00;;;;;;5066743;28;20060;-59
2022/05/19 10:04:17;;;;;;;1.05;0.95;;;26.70;95.80;;;;;;5067319;28;20069;-59
2022/05/19 10:07:05;;;;;;;3.35;1.30;;;28.00;96.50;;;;;;5066661;28;20035;-59
2022/05/19 10:09:33;;;;;;;3.10;1.13;;;28.60;94.70;;;;;;5069417;28;20493;-59
2022/05/19 10:12:08;;;;;;;1.23;1.00;;;30.60;92.70;;;;;;5069365;28;20432;-59
2022/05/19 10:14:35;;;;;;;1.25;0.98;;;28.90;91.20;;;;;;5069808;28;20032;-59
2022/05/19 10:17:30;;;;;;;2.22;1.45;;;30.90;87.70;;;;;;5069925;28;20036;-59
2022/05/19 10:20:06;;;;;;;3.25;1.17;;;32.00;86.60;;;;;;5051632;28;20040;-60
2022/05/19 10:22:46;;;;;;;1.10;1.00;;;31.50;69.70;;;;;;5069632;28;20449;-60
2022/05/19 10:25:22;;;;;;;2.58;1.73;;;28.80;82.40;;;;;;5066639;28;20020;-60
2022/05/19 10:31:03;;;;;;;1.70;1.38;;;26.20;96.60;;;;;;5073861;28;20086;-60
2022/05/19 10:33:48;;;;;;;4.60;1.63;;;29.90;91.70;;;;;;5073698;28;20037;-61
2022/05/19 10:36:38;;;;;;;2.65;1.70;;;30.50;83.60;;;;;;5073587;28;20032;-60
2022/05/19 10:39:06;;;;;;;2.92;1.20;;;28.60;84.90;;;;;;5072759;28;20489;-61
2022/05/19 10:41:52;;;;;;;1.42;1.10;;;27.30;85.70;;;;;;5073173;28;20481;-61
2022/05/19 10:44:36;;;;;;;4.43;1.42;;;28.20;91.20;;;;;;5073372;28;20036;-61
2022/05/19 10:47:08;;;;;;;2.67;1.50;;;26.50;90.40;;;;;;5073443;28;20493;-61
2022/05/19 10:49:52;;;;;;;2.00;1.35;;;24.60;96.10;;;;;;5073477;28;20120;-61
2022/05/19 10:52:43;;;;;;;4.53;2.05;;;23.50;98.20;;;;;;5073263;28;20055;-61
2022/05/19 10:55:22;;;;;;;2.25;1.60;;;27.40;92.60;;;;;;5073123;28;20370;-61
2022/05/19 10:58:11;;;;;;;3.25;1.58;;;28.10;92.10;;;;;;5073013;28;20029;-61
2022/05/19 11:01:22;;;;;;;3.95;1.48;;;27.10;93.70;;;;;;5073224;28;20033;-60
2022/05/19 11:04:06;;;;;;;;;;;27.70;88.80;;;;;;5073716;28;20077;-61
2022/05/19 11:06:59;;;;;;;3.55;2.33;;;29.90;85.60;;;;;;5072965;28;19911;-61
2022/05/19 11:09:59;;;;;;;3.35;1.63;;;27.50;89.60;;;;;;5072947;28;20082;-60
2022/05/19 11:12:32;;;;;;;4.45;2.30;;;28.60;81.10;;;;;;5050094;28;20396;-60
2022/05/19 11:15:16;;;;;;;4.70;2.03;;;28.70;87.90;;;;;;5072786;28;20032;-60
2022/05/19 11:18:14;;;;;;;6.55;2.03;;;28.50;81.10;;;;;;5072758;28;20033;-60
2022/05/19 11:20:49;;;;;;;2.33;1.67;;;27.30;84.50;;;;;;5072679;28;20077;-60
2022/05/19 11:23:43;;;;;;;3.80;1.42;;;25.30;89.10;;;;;;5053796;28;20492;-60
2022/05/19 11:26:23;;;;;;;2.85;1.58;;;27.60;88.00;;;;;;5069058;28;20029;-60
2022/05/19 11:29:07;;;;;;;3.92;2.25;;;30.10;84.20;;;;;;5070808;28;20021;-60
2022/05/19 11:32:05;;;;;;;3.33;1.75;;;28.70;78.20;;;;;;5072327;28;20031;-60
2022/05/19 11:34:39;;;;;;;3.80;2.10;;;32.60;73.90;;;;;;5058847;28;20086;-60
2022/05/19 11:37:27;;;;;;;3.90;1.85;;;33.80;59.10;;;;;;5072379;28;20035;-60
2022/05/19 11:40:19;;;;;;;6.00;1.67;;;33.90;55.70;;;;;;5072066;28;20035;-59
2022/05/19 11:43:04;;;;;;;3.67;2.17;;;34.20;50.70;;;;;;5072113;28;20028;-60
2022/05/19 11:45:38;;;;;;;3.83;1.75;;;36.10;44.70;;;;;;5072416;28;20033;-59
2022/05/19 11:57:03;;;;;;;6.15;3.38;;;36.90;36.90;;;;;;5071904;28;20027;-58
2022/05/19 11:59:29;;;;;;;2.75;2.00;;;37.00;32.00;;;;;;5072168;28;20032;-58
2022/05/19 12:01:55;;;;;;;5.50;1.60;;;35.70;28.50;;;;;;5072000;28;20449;-58
2022/05/19 12:04:29;;;;;;;2.25;1.40;;;35.50;28.50;;;;;;5072587;28;20051;-60
2022/05/19 12:07:09;;;;;;;5.05;1.60;;;35.20;30.00;;;;;;5071955;28;20086;-59
2022/05/19 12:09:41;;;;;;;2.33;2.00;;;34.80;30.30;;;;;;5068931;28;20020;-59
2022/05/19 12:12:29;;;;;;;3.42;1.50;;;35.50;29.40;;;;;;5064447;28;20071;-59
2022/05/19 12:15:17;;;;;;;4.32;1.90;;;35.80;31.90;;;;;;5061138;28;20086;-59
2022/05/19 12:17:51;;;;;;;7.72;2.10;;;35.00;32.30;;;;;;5071723;28;20104;-59
2022/05/19 12:20:50;;;;;;;3.22;1.67;;;35.30;29.40;;;;;;5071683;28;20024;-60
2022/05/19 12:23:26;;;;;;;3.00;1.83;;;36.10;29.40;;;;;;5070304;28;20040;-61
2022/05/19 12:26:15;;;;;;;7.78;2.30;;;35.80;28.30;;;;;;5068259;28;20513;-60
2022/05/19 12:29:08;;;;;;;8.48;3.03;;;36.00;29.20;;;;;;5069595;28;20025;-62
2022/05/19 12:31:59;;;;;;;2.80;1.73;;;36.00;28.40;;;;;;5061286;28;20040;-61
2022/05/19 12:34:32;;;;;;;3.13;1.10;;;35.20;27.00;;;;;;5068027;28;20020;-61
2022/05/19 12:37:13;;;;;;;4.40;1.75;;;34.50;27.40;;;;;;5071257;28;20104;-61
2022/05/19 12:39:46;;;;;;;3.28;1.70;;;33.50;28.30;;;;;;5071280;28;20119;-61
2022/05/19 12:42:18;;;;;;;4.13;1.88;;;34.30;30.00;;;;;;5070810;28;20533;-61
2022/05/19 12:44:51;;;;;;;2.10;1.33;;;34.60;29.50;;;;;;5071517;28;20024;-61
2022/05/19 12:47:19;;;;;;;3.75;1.00;;;35.10;30.20;;;;;;5071033;28;20028;-61
2022/05/19 12:50:10;;;;;;;3.00;1.20;;;34.40;28.80;;;;;;5070386;28;20027;-61
2022/05/19 12:52:56;;;;;;;3.65;1.55;;;34.40;26.80;;;;;;5070657;28;20102;-61
2022/05/19 12:55:25;;;;;;;2.70;1.13;;;33.20;28.50;;;;;;5070754;28;20492;-61
2022/05/19 12:57:55;;;;;;;2.53;1.50;;;33.70;29.70;;;;;;5070520;28;20032;-61
2022/05/19 13:00:26;;;;;;;5.63;1.30;;;32.80;29.40;;;;;;5070875;28;20119;-61
2022/05/19 13:03:04;;;;;;;3.63;1.08;;;32.40;31.00;;;;;;5071016;28;20035;-61
2022/05/19 13:05:49;;;;;;;4.47;1.15;;;32.70;30.90;;;;;;5071063;28;20024;-61
2022/05/19 13:08:28;;;;;;;4.13;1.20;;;32.00;31.20;;;;;;5070452;28;20486;-61
2022/05/19 13:10:56;;;;;;;3.53;1.57;;;31.00;31.10;;;;;;5070644;28;20120;-61
2022/05/19 13:13:43;;;;;;;3.28;1.15;;;31.60;34.70;;;;;;5070252;28;20529;-61
2022/05/19 13:16:31;;;;;;;2.13;0.95;;;31.20;32.20;;;;;;5070747;28;20060;-61
2022/05/19 13:19:04;;;;;;;4.88;1.33;;;31.30;36.50;;;;;;5070463;28;20028;-62
2022/05/19 13:21:37;;;;;;;3.53;1.00;;;31.90;34.30;;;;;;5069966;28;20439;-61
2022/05/19 13:24:09;;;;;;;5.13;1.27;;;31.50;34.20;;;;;;5070775;28;20021;-61
2022/05/19 13:26:37;;;;;;;4.50;1.55;;;31.20;35.00;;;;;;5070164;28;20033;-62
2022/05/19 13:32:02;;;;;;;4.47;1.30;;;30.70;34.00;;;;;;5070336;28;20039;-61